sensor_id;sensor_type;location;lat;lon;timestamp;temperature;humidity
15450;DHT22;7826;49.784;9.934;2022-07-22T00:01:55;20.30;99.90
15450;DHT22;7826;49.784;9.934;2022-07-22T00:04:22;20.20;99.90
15450;DHT22;7826;49.784;9.934;2022-07-22T00:06:49;20.20;99.90
15450;DHT22;7826;49.784;9.934;2022-07-22T00:09:15;20.20;99.90
15450;DHT22;7826;49.784;9.934;2022-07-22T00:11:42;20.20;99.90
15450;DHT22;7826;49.784;9.934;2022-07-22T00:14:08;20.20;99.90
15450;DHT22;7826;49.784;9.934;2022-07-22T00:16:35;20.20;99.90
15450;DHT22;7826;49.784;9.934;2022-07-22T00:19:01;20.20;99.90
15450;DHT22;7826;49.784;9.934;2022-07-22T00:21:28;20.10;99.90
15450;DHT22;7826;49.784;9.934;2022-07-22T00:23:54;20.10;99.90
15450;DHT22;7826;49.784;9.934;2022-07-22T00:26:21;20.10;99.90
15450;DHT22;7826;49.784;9.934;2022-07-22T00:28:47;20.10;99.90
15450;DHT22;7826;49.784;9.934;2022-07-22T00:31:13;20.00;99.90
15450;DHT22;7826;49.784;9.934;2022-07-22T00:33:40;20.00;99.90
15450;DHT22;7826;49.784;9.934;2022-07-22T00:36:07;19.90;99.90
15450;DHT22;7826;49.784;9.934;2022-07-22T00:38:34;19.90;99.90
15450;DHT22;7826;49.784;9.934;2022-07-22T00:41:00;19.80;99.90
15450;DHT22;7826;49.784;9.934;2022-07-22T00:43:27;19.80;99.90
15450;DHT22;7826;49.784;9.934;2022-07-22T00:45:53;19.70;98.90
15450;DHT22;7826;49.784;9.934;2022-07-22T00:48:20;19.60;94.80
15450;DHT22;7826;49.784;9.934;2022-07-22T00:50:46;19.60;99.90
15450;DHT22;7826;49.784;9.934;2022-07-22T00:53:13;19.50;99.90
15450;DHT22;7826;49.784;9.934;2022-07-22T00:55:40;19.50;99.90
15450;DHT22;7826;49.784;9.934;2022-07-22T00:58:06;19.50;99.90
15450;DHT22;7826;49.784;9.934;2022-07-22T01:00:33;19.40;1.00
15450;DHT22;7826;49.784;9.934;2022-07-22T01:03:00;19.40;99.90
15450;DHT22;7826;49.784;9.934;2022-07-22T01:05:26;19.30;1.00
15450;DHT22;7826;49.784;9.934;2022-07-22T01:07:52;19.30;1.00
15450;DHT22;7826;49.784;9.934;2022-07-22T01:10:19;19.30;1.00
15450;DHT22;7826;49.784;9.934;2022-07-22T01:12:45;19.30;1.00
15450;DHT22;7826;49.784;9.934;2022-07-22T01:15:12;19.20;1.00
15450;DHT22;7826;49.784;9.934;2022-07-22T01:17:38;19.20;1.00
15450;DHT22;7826;49.784;9.934;2022-07-22T01:20:06;19.10;1.00
15450;DHT22;7826;49.784;9.934;2022-07-22T01:22:33;19.10;9.40
15450;DHT22;7826;49.784;9.934;2022-07-22T01:25:00;19.10;99.90
15450;DHT22;7826;49.784;9.934;2022-07-22T01:27:26;19.00;99.90
15450;DHT22;7826;49.784;9.934;2022-07-22T01:29:54;19.00;99.90
15450;DHT22;7826;49.784;9.934;2022-07-22T01:32:20;19.00;99.90
15450;DHT22;7826;49.784;9.934;2022-07-22T01:34:47;19.00;99.90
15450;DHT22;7826;49.784;9.934;2022-07-22T01:37:13;18.90;99.90
15450;DHT22;7826;49.784;9.934;2022-07-22T01:39:39;18.90;1.00
15450;DHT22;7826;49.784;9.934;2022-07-22T01:42:06;18.90;1.00
15450;DHT22;7826;49.784;9.934;2022-07-22T01:44:32;18.90;1.00
15450;DHT22;7826;49.784;9.934;2022-07-22T01:46:59;18.90;1.00
15450;DHT22;7826;49.784;9.934;2022-07-22T01:49:25;18.90;1.00
15450;DHT22;7826;49.784;9.934;2022-07-22T01:51:52;18.90;1.00
15450;DHT22;7826;49.784;9.934;2022-07-22T01:54:18;18.90;1.00
15450;DHT22;7826;49.784;9.934;2022-07-22T01:56:45;18.80;1.00
15450;DHT22;7826;49.784;9.934;2022-07-22T01:59:11;18.80;51.30
15450;DHT22;7826;49.784;9.934;2022-07-22T02:01:37;18.80;99.90
15450;DHT22;7826;49.784;9.934;2022-07-22T02:04:04;18.70;99.90
15450;DHT22;7826;49.784;9.934;2022-07-22T02:06:30;18.60;99.90
15450;DHT22;7826;49.784;9.934;2022-07-22T02:08:57;18.60;1.00
15450;DHT22;7826;49.784;9.934;2022-07-22T02:11:23;18.50;1.00
15450;DHT22;7826;49.784;9.934;2022-07-22T02:13:50;18.50;99.90
15450;DHT22;7826;49.784;9.934;2022-07-22T02:16:16;18.50;99.90
15450;DHT22;7826;49.784;9.934;2022-07-22T02:18:42;18.50;1.00
15450;DHT22;7826;49.784;9.934;2022-07-22T02:21:09;18.50;99.90
15450;DHT22;7826;49.784;9.934;2022-07-22T02:23:35;18.50;99.90
15450;DHT22;7826;49.784;9.934;2022-07-22T02:26:02;18.50;99.90
15450;DHT22;7826;49.784;9.934;2022-07-22T02:28:29;18.50;99.90
15450;DHT22;7826;49.784;9.934;2022-07-22T02:30:55;18.40;99.90
15450;DHT22;7826;49.784;9.934;2022-07-22T02:33:21;18.40;1.00
15450;DHT22;7826;49.784;9.934;2022-07-22T02:35:48;18.30;1.00
15450;DHT22;7826;49.784;9.934;2022-07-22T02:38:14;18.30;1.00
15450;DHT22;7826;49.784;9.934;2022-07-22T02:40:41;18.30;1.00
15450;DHT22;7826;49.784;9.934;2022-07-22T02:43:07;18.30;99.90
15450;DHT22;7826;49.784;9.934;2022-07-22T02:45:34;18.30;99.90
15450;DHT22;7826;49.784;9.934;2022-07-22T02:48:00;18.20;99.90
15450;DHT22;7826;49.784;9.934;2022-07-22T02:50:27;18.30;99.90
15450;DHT22;7826;49.784;9.934;2022-07-22T02:52:53;18.30;99.90
15450;DHT22;7826;49.784;9.934;2022-07-22T02:55:20;18.30;99.90
15450;DHT22;7826;49.784;9.934;2022-07-22T02:57:46;18.30;58.20
15450;DHT22;7826;49.784;9.934;2022-07-22T03:00:13;18.20;62.40
15450;DHT22;7826;49.784;9.934;2022-07-22T03:02:40;18.20;99.90
15450;DHT22;7826;49.784;9.934;2022-07-22T03:05:07;18.20;1.00
15450;DHT22;7826;49.784;9.934;2022-07-22T03:07:34;18.20;1.00
15450;DHT22;7826;49.784;9.934;2022-07-22T03:10:01;18.20;99.90
15450;DHT22;7826;49.784;9.934;2022-07-22T03:12:27;18.20;99.90
15450;DHT22;7826;49.784;9.934;2022-07-22T03:14:53;18.20;99.90
15450;DHT22;7826;49.784;9.934;2022-07-22T03:17:20;18.20;54.50
15450;DHT22;7826;49.784;9.934;2022-07-22T03:19:46;18.10;69.10
15450;DHT22;7826;49.784;9.934;2022-07-22T03:22:12;18.10;1.00
15450;DHT22;7826;49.784;9.934;2022-07-22T03:24:39;18.00;99.90
15450;DHT22;7826;49.784;9.934;2022-07-22T03:27:05;18.00;99.90
15450;DHT22;7826;49.784;9.934;2022-07-22T03:29:31;17.90;99.90
15450;DHT22;7826;49.784;9.934;2022-07-22T03:31:57;17.90;99.90
15450;DHT22;7826;49.784;9.934;2022-07-22T03:34:24;17.90;99.90
15450;DHT22;7826;49.784;9.934;2022-07-22T03:36:51;17.80;1.00
15450;DHT22;7826;49.784;9.934;2022-07-22T03:39:17;17.70;1.00
15450;DHT22;7826;49.784;9.934;2022-07-22T03:41:43;17.70;1.00
15450;DHT22;7826;49.784;9.934;2022-07-22T03:44:10;17.70;99.90
15450;DHT22;7826;49.784;9.934;2022-07-22T03:46:36;17.70;99.90
15450;DHT22;7826;49.784;9.934;2022-07-22T03:49:02;17.70;1.00
15450;DHT22;7826;49.784;9.934;2022-07-22T03:51:29;17.70;1.00
15450;DHT22;7826;49.784;9.934;2022-07-22T03:53:56;17.80;1.00
15450;DHT22;7826;49.784;9.934;2022-07-22T03:56:23;17.80;1.00
15450;DHT22;7826;49.784;9.934;2022-07-22T03:58:49;17.80;91.00
15450;DHT22;7826;49.784;9.934;2022-07-22T04:01:16;17.80;99.50
15450;DHT22;7826;49.784;9.934;2022-07-22T04:03:42;17.90;1.00
15450;DHT22;7826;49.784;9.934;2022-07-22T04:06:08;17.90;1.00
15450;DHT22;7826;49.784;9.934;2022-07-22T04:08:35;18.00;1.00
15450;DHT22;7826;49.784;9.934;2022-07-22T04:11:01;18.00;25.30
15450;DHT22;7826;49.784;9.934;2022-07-22T04:13:28;18.00;99.90
15450;DHT22;7826;49.784;9.934;2022-07-22T04:15:54;18.10;1.00
15450;DHT22;7826;49.784;9.934;2022-07-22T04:18:20;18.20;1.00
15450;DHT22;7826;49.784;9.934;2022-07-22T04:20:47;18.20;96.40
15450;DHT22;7826;49.784;9.934;2022-07-22T04:23:13;18.20;99.90
15450;DHT22;7826;49.784;9.934;2022-07-22T04:25:40;18.40;46.80
15450;DHT22;7826;49.784;9.934;2022-07-22T04:28:07;18.40;39.00
15450;DHT22;7826;49.784;9.934;2022-07-22T04:30:33;18.50;1.00
15450;DHT22;7826;49.784;9.934;2022-07-22T04:33:00;18.50;1.00
15450;DHT22;7826;49.784;9.934;2022-07-22T04:35:26;18.50;38.70
15450;DHT22;7826;49.784;9.934;2022-07-22T04:37:52;18.50;99.90
15450;DHT22;7826;49.784;9.934;2022-07-22T04:40:19;18.80;99.90
15450;DHT22;7826;49.784;9.934;2022-07-22T04:42:45;19.00;99.90
15450;DHT22;7826;49.784;9.934;2022-07-22T04:45:12;19.20;99.90
15450;DHT22;7826;49.784;9.934;2022-07-22T04:47:38;19.30;99.90
15450;DHT22;7826;49.784;9.934;2022-07-22T04:50:06;19.50;99.90
15450;DHT22;7826;49.784;9.934;2022-07-22T04:52:33;19.70;99.90
15450;DHT22;7826;49.784;9.934;2022-07-22T04:54:59;20.00;99.90
15450;DHT22;7826;49.784;9.934;2022-07-22T04:57:26;20.10;99.90
15450;DHT22;7826;49.784;9.934;2022-07-22T04:59:53;20.20;99.90
15450;DHT22;7826;49.784;9.934;2022-07-22T05:02:20;20.30;99.90
15450;DHT22;7826;49.784;9.934;2022-07-22T05:04:47;20.50;99.90
15450;DHT22;7826;49.784;9.934;2022-07-22T05:07:13;20.70;99.90
15450;DHT22;7826;49.784;9.934;2022-07-22T05:09:39;21.00;99.90
15450;DHT22;7826;49.784;9.934;2022-07-22T05:12:06;21.10;99.90
15450;DHT22;7826;49.784;9.934;2022-07-22T05:14:33;21.10;99.90
15450;DHT22;7826;49.784;9.934;2022-07-22T05:16:59;21.20;99.90
15450;DHT22;7826;49.784;9.934;2022-07-22T05:19:26;21.10;99.90
15450;DHT22;7826;49.784;9.934;2022-07-22T05:21:52;21.10;99.90
15450;DHT22;7826;49.784;9.934;2022-07-22T05:24:19;21.20;99.90
15450;DHT22;7826;49.784;9.934;2022-07-22T05:26:45;21.20;99.90
15450;DHT22;7826;49.784;9.934;2022-07-22T05:29:11;21.10;99.90
15450;DHT22;7826;49.784;9.934;2022-07-22T05:31:38;21.10;99.90
15450;DHT22;7826;49.784;9.934;2022-07-22T05:34:04;21.10;99.90
15450;DHT22;7826;49.784;9.934;2022-07-22T05:36:32;21.10;99.90
15450;DHT22;7826;49.784;9.934;2022-07-22T05:38:58;21.00;99.90
15450;DHT22;7826;49.784;9.934;2022-07-22T05:41:25;21.00;99.90
15450;DHT22;7826;49.784;9.934;2022-07-22T05:43:51;21.10;99.90
15450;DHT22;7826;49.784;9.934;2022-07-22T05:46:18;21.20;99.90
15450;DHT22;7826;49.784;9.934;2022-07-22T05:48:44;21.40;99.90
15450;DHT22;7826;49.784;9.934;2022-07-22T05:51:12;21.60;98.80
15450;DHT22;7826;49.784;9.934;2022-07-22T05:53:40;21.60;99.40
15450;DHT22;7826;49.784;9.934;2022-07-22T05:56:07;21.70;98.70
15450;DHT22;7826;49.784;9.934;2022-07-22T05:58:34;21.90;98.30
15450;DHT22;7826;49.784;9.934;2022-07-22T06:01:01;22.00;97.60
15450;DHT22;7826;49.784;9.934;2022-07-22T06:03:27;22.20;97.50
15450;DHT22;7826;49.784;9.934;2022-07-22T06:05:54;22.20;96.80
15450;DHT22;7826;49.784;9.934;2022-07-22T06:08:20;22.30;96.40
15450;DHT22;7826;49.784;9.934;2022-07-22T06:10:47;22.50;96.80
15450;DHT22;7826;49.784;9.934;2022-07-22T06:13:13;22.70;95.70
15450;DHT22;7826;49.784;9.934;2022-07-22T06:15:40;22.70;95.40
15450;DHT22;7826;49.784;9.934;2022-07-22T06:18:06;22.90;94.60
15450;DHT22;7826;49.784;9.934;2022-07-22T06:20:33;23.00;94.80
15450;DHT22;7826;49.784;9.934;2022-07-22T06:22:59;23.10;93.70
15450;DHT22;7826;49.784;9.934;2022-07-22T06:25:26;23.10;93.70
15450;DHT22;7826;49.784;9.934;2022-07-22T06:27:52;23.30;93.20
15450;DHT22;7826;49.784;9.934;2022-07-22T06:30:19;23.50;93.00
15450;DHT22;7826;49.784;9.934;2022-07-22T06:32:46;23.60;92.00
15450;DHT22;7826;49.784;9.934;2022-07-22T06:35:12;23.70;91.40
15450;DHT22;7826;49.784;9.934;2022-07-22T06:37:39;23.80;90.80
15450;DHT22;7826;49.784;9.934;2022-07-22T06:40:06;23.60;90.70
15450;DHT22;7826;49.784;9.934;2022-07-22T06:42:32;23.80;90.60
15450;DHT22;7826;49.784;9.934;2022-07-22T06:44:58;24.00;90.50
15450;DHT22;7826;49.784;9.934;2022-07-22T06:47:25;24.30;87.90
15450;DHT22;7826;49.784;9.934;2022-07-22T06:49:51;24.30;87.60
15450;DHT22;7826;49.784;9.934;2022-07-22T06:52:18;24.50;87.70
15450;DHT22;7826;49.784;9.934;2022-07-22T06:54:44;24.70;84.30
15450;DHT22;7826;49.784;9.934;2022-07-22T06:57:10;24.40;83.70
15450;DHT22;7826;49.784;9.934;2022-07-22T06:59:37;24.20;84.80
15450;DHT22;7826;49.784;9.934;2022-07-22T07:02:03;24.40;84.10
15450;DHT22;7826;49.784;9.934;2022-07-22T07:04:30;24.40;83.90
15450;DHT22;7826;49.784;9.934;2022-07-22T07:06:56;24.40;82.70
15450;DHT22;7826;49.784;9.934;2022-07-22T07:09:22;24.70;82.50
15450;DHT22;7826;49.784;9.934;2022-07-22T07:11:48;24.90;80.20
15450;DHT22;7826;49.784;9.934;2022-07-22T07:14:15;25.20;81.20
15450;DHT22;7826;49.784;9.934;2022-07-22T07:16:41;25.50;78.20
15450;DHT22;7826;49.784;9.934;2022-07-22T07:19:07;25.30;77.00
15450;DHT22;7826;49.784;9.934;2022-07-22T07:21:34;25.30;77.20
15450;DHT22;7826;49.784;9.934;2022-07-22T07:24:00;25.60;76.60
15450;DHT22;7826;49.784;9.934;2022-07-22T07:26:27;26.00;75.80
15450;DHT22;7826;49.784;9.934;2022-07-22T07:28:53;26.40;75.00
15450;DHT22;7826;49.784;9.934;2022-07-22T07:31:20;26.80;71.80
15450;DHT22;7826;49.784;9.934;2022-07-22T07:33:46;27.40;70.10
15450;DHT22;7826;49.784;9.934;2022-07-22T07:36:12;27.30;67.50
15450;DHT22;7826;49.784;9.934;2022-07-22T07:38:39;27.30;66.90
15450;DHT22;7826;49.784;9.934;2022-07-22T07:41:05;27.10;66.40
15450;DHT22;7826;49.784;9.934;2022-07-22T07:43:32;27.30;67.80
15450;DHT22;7826;49.784;9.934;2022-07-22T07:45:59;27.20;66.00
15450;DHT22;7826;49.784;9.934;2022-07-22T07:48:25;27.70;67.90
15450;DHT22;7826;49.784;9.934;2022-07-22T07:50:52;28.70;64.90
15450;DHT22;7826;49.784;9.934;2022-07-22T07:53:18;29.50;62.50
15450;DHT22;7826;49.784;9.934;2022-07-22T07:55:45;30.10;58.70
15450;DHT22;7826;49.784;9.934;2022-07-22T07:58:12;30.50;58.20
15450;DHT22;7826;49.784;9.934;2022-07-22T08:00:38;31.10;56.80
15450;DHT22;7826;49.784;9.934;2022-07-22T08:03:05;31.60;54.80
15450;DHT22;7826;49.784;9.934;2022-07-22T08:05:32;32.00;54.00
15450;DHT22;7826;49.784;9.934;2022-07-22T08:07:58;32.30;52.50
15450;DHT22;7826;49.784;9.934;2022-07-22T08:10:25;32.70;50.80
15450;DHT22;7826;49.784;9.934;2022-07-22T08:12:52;33.00;50.30
15450;DHT22;7826;49.784;9.934;2022-07-22T08:15:20;33.60;49.90
15450;DHT22;7826;49.784;9.934;2022-07-22T08:17:46;33.50;48.00
15450;DHT22;7826;49.784;9.934;2022-07-22T08:20:13;33.40;48.20
15450;DHT22;7826;49.784;9.934;2022-07-22T08:22:39;33.90;48.10
15450;DHT22;7826;49.784;9.934;2022-07-22T08:25:05;34.30;45.90
15450;DHT22;7826;49.784;9.934;2022-07-22T08:27:32;34.50;45.00
15450;DHT22;7826;49.784;9.934;2022-07-22T08:29:58;34.80;45.60
15450;DHT22;7826;49.784;9.934;2022-07-22T08:32:24;35.20;43.60
15450;DHT22;7826;49.784;9.934;2022-07-22T08:34:51;35.10;44.30
15450;DHT22;7826;49.784;9.934;2022-07-22T08:37:17;35.10;43.30
15450;DHT22;7826;49.784;9.934;2022-07-22T08:39:44;35.10;43.70
15450;DHT22;7826;49.784;9.934;2022-07-22T08:42:10;35.20;43.80
15450;DHT22;7826;49.784;9.934;2022-07-22T08:44:37;35.60;43.30
15450;DHT22;7826;49.784;9.934;2022-07-22T08:47:03;35.60;43.00
15450;DHT22;7826;49.784;9.934;2022-07-22T08:49:29;35.80;42.50
15450;DHT22;7826;49.784;9.934;2022-07-22T08:51:56;36.30;41.90
15450;DHT22;7826;49.784;9.934;2022-07-22T08:54:22;36.00;41.20
15450;DHT22;7826;49.784;9.934;2022-07-22T08:56:50;36.00;41.80
15450;DHT22;7826;49.784;9.934;2022-07-22T08:59:16;36.10;41.40
15450;DHT22;7826;49.784;9.934;2022-07-22T09:04:29;35.80;41.60
15450;DHT22;7826;49.784;9.934;2022-07-22T09:06:58;36.00;42.10
15450;DHT22;7826;49.784;9.934;2022-07-22T09:09:32;36.20;41.80
15450;DHT22;7826;49.784;9.934;2022-07-22T09:12:09;36.30;41.30
15450;DHT22;7826;49.784;9.934;2022-07-22T09:14:45;36.10;40.50
15450;DHT22;7826;49.784;9.934;2022-07-22T09:17:32;35.80;40.40
15450;DHT22;7826;49.784;9.934;2022-07-22T09:20:05;35.70;41.00
15450;DHT22;7826;49.784;9.934;2022-07-22T09:22:42;35.80;41.00
15450;DHT22;7826;49.784;9.934;2022-07-22T09:25:34;36.00;40.50
15450;DHT22;7826;49.784;9.934;2022-07-22T09:30:54;36.10;40.90
15450;DHT22;7826;49.784;9.934;2022-07-22T09:33:21;36.10;40.50
15450;DHT22;7826;49.784;9.934;2022-07-22T09:35:48;36.30;40.60
15450;DHT22;7826;49.784;9.934;2022-07-22T09:38:16;36.00;39.50
15450;DHT22;7826;49.784;9.934;2022-07-22T09:40:45;35.60;39.70
15450;DHT22;7826;49.784;9.934;2022-07-22T09:43:13;34.90;39.90
15450;DHT22;7826;49.784;9.934;2022-07-22T09:45:56;34.40;41.50
15450;DHT22;7826;49.784;9.934;2022-07-22T09:48:26;34.20;42.50
15450;DHT22;7826;49.784;9.934;2022-07-22T09:50:54;34.00;42.10
15450;DHT22;7826;49.784;9.934;2022-07-22T09:53:22;33.80;43.10
15450;DHT22;7826;49.784;9.934;2022-07-22T09:55:49;33.90;43.70
15450;DHT22;7826;49.784;9.934;2022-07-22T09:58:16;33.80;42.00
15450;DHT22;7826;49.784;9.934;2022-07-22T10:00:43;33.10;43.00
15450;DHT22;7826;49.784;9.934;2022-07-22T10:03:28;33.00;43.70
15450;DHT22;7826;49.784;9.934;2022-07-22T10:05:56;32.70;45.50
15450;DHT22;7826;49.784;9.934;2022-07-22T10:08:25;32.30;44.60
15450;DHT22;7826;49.784;9.934;2022-07-22T10:10:52;32.10;45.50
15450;DHT22;7826;49.784;9.934;2022-07-22T10:13:19;32.00;45.30
15450;DHT22;7826;49.784;9.934;2022-07-22T10:15:46;31.80;46.20
15450;DHT22;7826;49.784;9.934;2022-07-22T10:18:15;32.00;45.40
15450;DHT22;7826;49.784;9.934;2022-07-22T10:20:42;32.00;45.40
15450;DHT22;7826;49.784;9.934;2022-07-22T10:23:10;32.00;45.40
15450;DHT22;7826;49.784;9.934;2022-07-22T10:25:57;31.70;45.60
15450;DHT22;7826;49.784;9.934;2022-07-22T10:28:33;31.00;46.40
15450;DHT22;7826;49.784;9.934;2022-07-22T10:31:20;30.20;47.80
15450;DHT22;7826;49.784;9.934;2022-07-22T10:33:54;29.40;49.30
15450;DHT22;7826;49.784;9.934;2022-07-22T10:36:50;28.90;51.20
15450;DHT22;7826;49.784;9.934;2022-07-22T10:39:17;28.40;51.80
15450;DHT22;7826;49.784;9.934;2022-07-22T10:41:45;27.90;52.60
15450;DHT22;7826;49.784;9.934;2022-07-22T10:44:12;27.40;53.40
15450;DHT22;7826;49.784;9.934;2022-07-22T10:46:53;27.10;54.30
15450;DHT22;7826;49.784;9.934;2022-07-22T10:49:21;27.00;55.20
15450;DHT22;7826;49.784;9.934;2022-07-22T10:54:34;27.10;55.60
15450;DHT22;7826;49.784;9.934;2022-07-22T10:57:32;27.20;55.60
15450;DHT22;7826;49.784;9.934;2022-07-22T10:59:59;27.40;55.60
15450;DHT22;7826;49.784;9.934;2022-07-22T11:02:26;27.50;55.40
15450;DHT22;7826;49.784;9.934;2022-07-22T11:04:53;27.70;55.00
15450;DHT22;7826;49.784;9.934;2022-07-22T11:07:21;27.90;54.60
15450;DHT22;7826;49.784;9.934;2022-07-22T11:09:47;27.90;54.10
15450;DHT22;7826;49.784;9.934;2022-07-22T11:12:13;27.80;53.80
15450;DHT22;7826;49.784;9.934;2022-07-22T11:14:40;27.70;54.40
15450;DHT22;7826;49.784;9.934;2022-07-22T11:17:11;27.80;54.90
15450;DHT22;7826;49.784;9.934;2022-07-22T11:19:39;27.90;54.90
15450;DHT22;7826;49.784;9.934;2022-07-22T11:22:07;28.00;54.60
15450;DHT22;7826;49.784;9.934;2022-07-22T11:24:34;28.20;54.50
15450;DHT22;7826;49.784;9.934;2022-07-22T11:27:03;28.20;54.10
15450;DHT22;7826;49.784;9.934;2022-07-22T11:32:02;28.40;53.40
15450;DHT22;7826;49.784;9.934;2022-07-22T11:34:29;28.40;53.40
15450;DHT22;7826;49.784;9.934;2022-07-22T11:36:56;28.40;53.20
15450;DHT22;7826;49.784;9.934;2022-07-22T11:39:27;28.40;53.20
15450;DHT22;7826;49.784;9.934;2022-07-22T11:41:55;28.40;53.10
15450;DHT22;7826;49.784;9.934;2022-07-22T11:44:25;28.40;52.40
15450;DHT22;7826;49.784;9.934;2022-07-22T11:46:52;28.40;52.40
15450;DHT22;7826;49.784;9.934;2022-07-22T11:49:20;28.30;52.70
15450;DHT22;7826;49.784;9.934;2022-07-22T11:51:48;28.30;53.00
15450;DHT22;7826;49.784;9.934;2022-07-22T11:54:14;28.00;53.20
15450;DHT22;7826;49.784;9.934;2022-07-22T11:56:41;27.90;53.90
15450;DHT22;7826;49.784;9.934;2022-07-22T11:59:12;27.90;53.80
15450;DHT22;7826;49.784;9.934;2022-07-22T12:01:39;28.00;54.30
15450;DHT22;7826;49.784;9.934;2022-07-22T12:04:26;28.10;54.20
15450;DHT22;7826;49.784;9.934;2022-07-22T12:06:54;28.10;53.90
15450;DHT22;7826;49.784;9.934;2022-07-22T12:09:26;28.20;54.20
15450;DHT22;7826;49.784;9.934;2022-07-22T12:11:54;28.40;53.70
15450;DHT22;7826;49.784;9.934;2022-07-22T12:14:25;28.40;52.90
15450;DHT22;7826;49.784;9.934;2022-07-22T12:17:06;28.50;52.80
15450;DHT22;7826;49.784;9.934;2022-07-22T12:19:34;28.30;52.70
15450;DHT22;7826;49.784;9.934;2022-07-22T12:22:04;28.20;53.40
15450;DHT22;7826;49.784;9.934;2022-07-22T12:24:37;28.30;53.40
15450;DHT22;7826;49.784;9.934;2022-07-22T12:27:14;28.30;52.50
15450;DHT22;7826;49.784;9.934;2022-07-22T12:29:45;28.30;52.70
15450;DHT22;7826;49.784;9.934;2022-07-22T12:40:07;28.80;52.50
15450;DHT22;7826;49.784;9.934;2022-07-22T12:42:45;29.00;51.80
15450;DHT22;7826;49.784;9.934;2022-07-22T12:45:14;28.80;51.20
15450;DHT22;7826;49.784;9.934;2022-07-22T12:47:50;28.70;51.70
15450;DHT22;7826;49.784;9.934;2022-07-22T12:50:20;28.90;52.80
15450;DHT22;7826;49.784;9.934;2022-07-22T12:52:48;28.90;51.50
15450;DHT22;7826;49.784;9.934;2022-07-22T12:55:16;29.00;51.20
15450;DHT22;7826;49.784;9.934;2022-07-22T12:57:42;29.00;51.20
15450;DHT22;7826;49.784;9.934;2022-07-22T13:00:09;29.00;51.20
15450;DHT22;7826;49.784;9.934;2022-07-22T13:02:36;28.90;51.10
15450;DHT22;7826;49.784;9.934;2022-07-22T13:05:03;28.90;51.10
15450;DHT22;7826;49.784;9.934;2022-07-22T13:07:30;28.90;51.10
15450;DHT22;7826;49.784;9.934;2022-07-22T13:09:56;29.10;51.00
15450;DHT22;7826;49.784;9.934;2022-07-22T13:12:23;29.20;50.90
15450;DHT22;7826;49.784;9.934;2022-07-22T13:14:49;29.20;50.70
15450;DHT22;7826;49.784;9.934;2022-07-22T13:17:16;29.40;50.60
15450;DHT22;7826;49.784;9.934;2022-07-22T13:19:42;29.50;50.10
15450;DHT22;7826;49.784;9.934;2022-07-22T13:22:09;29.50;49.60
15450;DHT22;7826;49.784;9.934;2022-07-22T13:24:35;29.40;49.90
15450;DHT22;7826;49.784;9.934;2022-07-22T13:27:02;29.30;49.70
15450;DHT22;7826;49.784;9.934;2022-07-22T13:29:29;29.40;49.80
15450;DHT22;7826;49.784;9.934;2022-07-22T13:31:55;29.50;49.30
15450;DHT22;7826;49.784;9.934;2022-07-22T13:34:22;29.50;49.40
15450;DHT22;7826;49.784;9.934;2022-07-22T13:36:48;29.60;48.70
15450;DHT22;7826;49.784;9.934;2022-07-22T13:39:15;29.60;49.00
15450;DHT22;7826;49.784;9.934;2022-07-22T13:41:42;29.60;48.70
15450;DHT22;7826;49.784;9.934;2022-07-22T13:44:09;29.60;48.60
15450;DHT22;7826;49.784;9.934;2022-07-22T13:46:35;29.70;48.60
15450;DHT22;7826;49.784;9.934;2022-07-22T13:49:02;29.70;48.50
15450;DHT22;7826;49.784;9.934;2022-07-22T13:51:29;29.80;48.80
15450;DHT22;7826;49.784;9.934;2022-07-22T13:53:56;29.70;48.80
15450;DHT22;7826;49.784;9.934;2022-07-22T13:56:22;29.80;48.50
15450;DHT22;7826;49.784;9.934;2022-07-22T13:58:49;29.60;49.10
15450;DHT22;7826;49.784;9.934;2022-07-22T14:01:15;29.70;48.60
15450;DHT22;7826;49.784;9.934;2022-07-22T14:03:41;29.80;48.30
15450;DHT22;7826;49.784;9.934;2022-07-22T14:06:08;29.90;48.10
15450;DHT22;7826;49.784;9.934;2022-07-22T14:08:35;30.10;47.70
15450;DHT22;7826;49.784;9.934;2022-07-22T14:11:03;30.10;47.50
15450;DHT22;7826;49.784;9.934;2022-07-22T14:13:29;30.00;47.50
15450;DHT22;7826;49.784;9.934;2022-07-22T14:15:56;30.10;48.10
15450;DHT22;7826;49.784;9.934;2022-07-22T14:18:22;30.30;47.50
15450;DHT22;7826;49.784;9.934;2022-07-22T14:20:49;30.40;46.80
15450;DHT22;7826;49.784;9.934;2022-07-22T14:23:15;30.60;46.50
15450;DHT22;7826;49.784;9.934;2022-07-22T14:25:42;30.70;46.30
15450;DHT22;7826;49.784;9.934;2022-07-22T14:28:09;30.70;46.50
15450;DHT22;7826;49.784;9.934;2022-07-22T14:30:35;30.90;46.10
15450;DHT22;7826;49.784;9.934;2022-07-22T14:33:03;30.90;45.80
15450;DHT22;7826;49.784;9.934;2022-07-22T14:35:29;30.80;45.50
15450;DHT22;7826;49.784;9.934;2022-07-22T14:38:00;30.90;45.90
15450;DHT22;7826;49.784;9.934;2022-07-22T14:40:26;30.80;45.40
15450;DHT22;7826;49.784;9.934;2022-07-22T14:42:53;30.70;45.50
15450;DHT22;7826;49.784;9.934;2022-07-22T14:45:19;30.70;46.10
15450;DHT22;7826;49.784;9.934;2022-07-22T14:47:45;30.80;46.00
15450;DHT22;7826;49.784;9.934;2022-07-22T14:50:12;30.80;45.60
15450;DHT22;7826;49.784;9.934;2022-07-22T14:52:38;30.80;46.20
15450;DHT22;7826;49.784;9.934;2022-07-22T14:55:05;30.90;45.40
15450;DHT22;7826;49.784;9.934;2022-07-22T14:57:31;30.90;45.50
15450;DHT22;7826;49.784;9.934;2022-07-22T14:59:58;30.90;45.60
15450;DHT22;7826;49.784;9.934;2022-07-22T15:02:24;31.00;45.80
15450;DHT22;7826;49.784;9.934;2022-07-22T15:04:54;31.10;45.50
15450;DHT22;7826;49.784;9.934;2022-07-22T15:07:20;31.10;45.00
15450;DHT22;7826;49.784;9.934;2022-07-22T15:09:47;31.10;44.60
15450;DHT22;7826;49.784;9.934;2022-07-22T15:12:13;31.00;44.90
15450;DHT22;7826;49.784;9.934;2022-07-22T15:14:40;30.90;44.40
15450;DHT22;7826;49.784;9.934;2022-07-22T15:17:06;30.80;44.30
15450;DHT22;7826;49.784;9.934;2022-07-22T15:19:33;30.60;45.10
15450;DHT22;7826;49.784;9.934;2022-07-22T15:21:59;30.70;45.00
15450;DHT22;7826;49.784;9.934;2022-07-22T15:24:25;30.50;44.80
15450;DHT22;7826;49.784;9.934;2022-07-22T15:26:52;30.50;45.40
15450;DHT22;7826;49.784;9.934;2022-07-22T15:29:18;30.50;45.10
15450;DHT22;7826;49.784;9.934;2022-07-22T15:31:44;30.40;45.00
15450;DHT22;7826;49.784;9.934;2022-07-22T15:34:11;30.60;45.40
15450;DHT22;7826;49.784;9.934;2022-07-22T15:36:37;30.80;44.50
15450;DHT22;7826;49.784;9.934;2022-07-22T15:39:04;30.70;44.60
15450;DHT22;7826;49.784;9.934;2022-07-22T15:41:30;30.80;44.50
15450;DHT22;7826;49.784;9.934;2022-07-22T15:43:57;30.90;44.50
15450;DHT22;7826;49.784;9.934;2022-07-22T15:46:23;30.90;44.80
15450;DHT22;7826;49.784;9.934;2022-07-22T15:48:49;30.90;44.50
15450;DHT22;7826;49.784;9.934;2022-07-22T15:51:16;30.90;44.60
15450;DHT22;7826;49.784;9.934;2022-07-22T15:53:42;30.70;44.60
15450;DHT22;7826;49.784;9.934;2022-07-22T15:56:09;30.80;44.80
15450;DHT22;7826;49.784;9.934;2022-07-22T15:58:35;30.80;44.80
15450;DHT22;7826;49.784;9.934;2022-07-22T16:01:20;30.80;44.50
15450;DHT22;7826;49.784;9.934;2022-07-22T16:03:46;30.80;44.70
15450;DHT22;7826;49.784;9.934;2022-07-22T16:06:13;30.90;44.10
15450;DHT22;7826;49.784;9.934;2022-07-22T16:08:39;31.00;44.10